Akademik Fedorov — UCKZ — position and weather

sailwx.info

Track history (hours):
 
Tides and Currents Weather Stations Pressure Air Temp Water Temp Dewpoint Dewpoint Depression Visibility Wind Speed Wind Dir Waves Ship Positions

Oceanographic research ship Akademik Fedorov (Russia)

Detailed information on ship capabilities available from ARCUS's ALIAS (Arctic Logistics Information and Support) project.

Last reported at 2020-Jan-18 03:55 UTC. Time now 2020-Jan-19 02:57 UTC.
Position N 57°12' E 008°08'.

Length 141 m; beam 17 m.

Type: Other ship. MMSI: 273412710.

Date/timePositionNaut miles runAvg speedWind from/ knotsBaromVisibWave heightAir tempDewpointWater temp
2020-Jan-18 03:55N 57°12' E 008°08'18 9.6
2020-Jan-18 02:00N 57°26' E 008°29'9 9.2
2020-Jan-18 00:58N 57°34' E 008°40'9 9.8
2020-Jan-18 00:01N 57°39' E 008°55'39 9.8
2020-Jan-17 20:00N 57°55' E 010°02'14 9.6
2020-Jan-17 18:30N 57°58' E 010°29'1312.8
2020-Jan-17 17:30N 57°53' E 010°51'1616.1
2020-Jan-17 16:30N 57°40' E 011°09'2416.2
2020-Jan-17 15:00N 57°19' E 011°31'12614.9
2020-Jan-17 06:33N 55°14' E 011°06'2415.2
2020-Jan-17 05:00N 54°52' E 010°53'816.1
2020-Jan-17 04:30N 54°44' E 010°53'815.1
2020-Jan-17 04:00N 54°39' E 011°03'2315.5
2020-Jan-17 02:30N 54°29' E 011°39'2411.8
2020-Jan-17 00:30N 54°38' E 012°17'9914.1
2020-Jan-16 17:26N 55°30' E 014°44'613.9
2020-Jan-16 17:00N 55°32' E 014°54'4013.4
2020-Jan-16 14:00N 55°45' E 016°02'1312.9
2020-Jan-16 13:00N 55°48' E 016°24'612.9
2020-Jan-16 12:30N 55°50' E 016°35'612.7
2020-Jan-16 12:00N 55°51' E 016°46'29013.2
2020-Jan-15 14:01N 59°32' E 022°38'1711.0
2020-Jan-15 12:30N 59°37' E 023°09'1211.2
2020-Jan-15 11:28N 59°40' E 023°31'2412.2
2020-Jan-15 09:27N 59°47' E 024°18'1313.3
2020-Jan-15 08:31N 59°50' E 024°42'5114.7
2020-Jan-15 05:00N 60°00' E 026°23'2214.7
2020-Jan-15 03:30N 60°01' E 027°07'1514.6
2020-Jan-15 02:30N 60°08' E 027°32'1313.3
2020-Jan-15 01:30N 60°11' E 027°58'2214.7
2020-Jan-15 00:00N 60°03' E 028°40'3313.1
2020-Jan-14 21:30N 59°59' E 029°45'510.9
2020-Jan-14 21:00N 59°56' E 029°55'9 6.3
2020-Jan-14 19:30N 59°53' E 030°12'0 0.0
2020-Jan-14 18:24N 59°53' E 030°12'0 0.0
2020-Jan-14 18:00N 59°53' E 030°12'0 0.0
2020-Jan-14 17:30N 59°53' E 030°12'0 0.0
2020-Jan-14 16:54N 59°53' E 030°12'0 0.0
2020-Jan-14 15:00N 59°53' E 030°12'0 0.0
2020-Jan-14 14:30N 59°53' E 030°12'0 0.0
2020-Jan-14 13:30N 59°53' E 030°12'0 0.0
2020-Jan-14 11:54N 59°53' E 030°12'0 0.0
2020-Jan-14 11:18N 59°53' E 030°12'0 0.0
2020-Jan-14 10:36N 59°53' E 030°12'0 0.0
2020-Jan-14 10:00N 59°53' E 030°12'0 0.0
2020-Jan-14 07:30N 59°53' E 030°12'0 0.0
2020-Jan-14 06:00N 59°53' E 030°12'0 0.0
2020-Jan-14 05:30N 59°53' E 030°12'0 0.0
2020-Jan-14 01:00N 59°53' E 030°12'0 0.0
2020-Jan-13 20:30N 59°53' E 030°12'0 0.0
2020-Jan-13 18:00N 59°53' E 030°12'0 0.0
2020-Jan-13 16:57N 59°53' E 030°12'0 0.0
2020-Jan-13 12:00N 59°53' E 030°12'0 0.0
2020-Jan-13 11:00N 59°53' E 030°12'0 0.0
2020-Jan-13 07:45N 59°53' E 030°12'0 0.0
2020-Jan-13 06:30N 59°53' E 030°12'0 0.0
2020-Jan-13 05:00N 59°53' E 030°12'0 0.0
2020-Jan-13 04:30N 59°53' E 030°12'0 0.0
2020-Jan-13 04:00N 59°53' E 030°12'0 0.0
2020-Jan-13 03:30N 59°53' E 030°12'0 0.0
2020-Jan-13 01:48N 59°53' E 030°12'0 0.0
2020-Jan-13 01:24N 59°53' E 030°12'0 0.0
2020-Jan-13 00:30N 59°53' E 030°12'0 0.0
2020-Jan-12 20:24N 59°53' E 030°12'0 0.0
2020-Jan-12 18:24N 59°53' E 030°12'0 0.0
2020-Jan-12 17:24N 59°53' E 030°12'0 0.0
2020-Jan-12 16:24N 59°53' E 030°12'0 0.0
2020-Jan-12 16:00N 59°53' E 030°12'0 0.0
2020-Jan-12 15:27N 59°53' E 030°12'0 0.0
2020-Jan-12 12:30N 59°53' E 030°12'0 0.0
2020-Jan-12 11:30N 59°53' E 030°12'0 0.0
2020-Jan-12 10:24N 59°53' E 030°12'0 0.0
2020-Jan-12 08:51N 59°53' E 030°12'0 0.0
2020-Jan-12 08:30N 59°53' E 030°12'0 0.0
2020-Jan-12 07:00N 59°53' E 030°12'0 0.0
2020-Jan-12 03:00N 59°53' E 030°12'0 0.0
2020-Jan-12 00:57N 59°53' E 030°12'0 0.0
2020-Jan-12 00:00N 59°53' E 030°12'0 0.0
2020-Jan-11 23:00N 59°53' E 030°12'0 0.0
2020-Jan-11 22:27N 59°53' E 030°12'0 0.0
2020-Jan-11 21:30N 59°53' E 030°12'0 0.0
2020-Jan-11 20:57N 59°53' E 030°12'0 0.0
2020-Jan-11 16:42N 59°53' E 030°12'0 0.0
2020-Jan-11 16:00N 59°53' E 030°12'0 0.0
2020-Jan-11 11:00N 59°53' E 030°12'0 0.0
2020-Jan-11 06:30N 59°53' E 030°12'0 0.0
2020-Jan-11 03:24N 59°53' E 030°12'0 0.0
2020-Jan-11 03:00N 59°53' E 030°12'0 0.0
2020-Jan-11 02:30N 59°53' E 030°12'0 0.0
2020-Jan-11 01:30N 59°53' E 030°12'0 0.0
2020-Jan-10 23:30N 59°53' E 030°12'0 0.0
2020-Jan-10 17:30N 59°53' E 030°12'0 0.0
2020-Jan-10 17:00N 59°53' E 030°12'0 0.0
2020-Jan-10 15:30N 59°53' E 030°12'0 0.0
2020-Jan-10 12:30N 59°53' E 030°12'0 0.0
2020-Jan-10 10:24N 59°53' E 030°12'0 0.0
2020-Jan-10 08:30N 59°53' E 030°12'0 0.0
2020-Jan-10 08:00N 59°53' E 030°12'0 0.0
2020-Jan-10 07:30N 59°53' E 030°12'0 0.0
2020-Jan-10 07:00N 59°53' E 030°12'0 0.0
2020-Jan-10 06:27N 59°53' E 030°12'0 0.0
2020-Jan-10 01:30N 59°53' E 030°12'0 0.0
2020-Jan-10 00:51N 59°53' E 030°12'0 0.0
2020-Jan-09 22:30N 59°53' E 030°12'0 0.0
2020-Jan-09 18:57N 59°53' E 030°12'0 0.0
2020-Jan-09 17:30N 59°53' E 030°12'0 0.0
2020-Jan-09 14:15N 59°53' E 030°12'0 0.0
2020-Jan-09 09:30N 59°53' E 030°12'0 0.0
2020-Jan-09 08:57N 59°53' E 030°12'0 0.0
2020-Jan-09 08:30N 59°53' E 030°12'1 0.2
2020-Jan-09 03:30N 59°53' E 030°14'0 0.0
2020-Jan-09 02:30N 59°53' E 030°14'0 0.0
2020-Jan-08 21:00N 59°53' E 030°14'0 0.0
2020-Jan-08 20:30N 59°53' E 030°14'0 0.0
2020-Jan-08 19:30N 59°53' E 030°14'0 0.0
2020-Jan-08 19:00N 59°53' E 030°14'0 0.0
2020-Jan-08 18:00N 59°53' E 030°14'0 0.0
2020-Jan-08 17:27N 59°53' E 030°14'0 0.0
2020-Jan-08 15:30N 59°53' E 030°14'0 0.0
2020-Jan-08 15:00N 59°53' E 030°14'0 0.0
2020-Jan-08 14:00N 59°53' E 030°14'0 0.0
2020-Jan-08 13:00N 59°53' E 030°14'0 0.0
2020-Jan-08 11:30N 59°53' E 030°14'0 0.0
2020-Jan-08 11:00N 59°53' E 030°14'0 0.0
2020-Jan-08 09:30N 59°53' E 030°14'0 0.0
2020-Jan-08 09:00N 59°53' E 030°14'0 0.0
2020-Jan-08 08:30N 59°53' E 030°14'0 0.0
2020-Jan-08 08:00N 59°53' E 030°14'0 0.0
2020-Jan-08 07:30N 59°53' E 030°14'0 0.0
2020-Jan-08 06:30N 59°53' E 030°14'0 0.0
2020-Jan-08 05:30N 59°53' E 030°14'0 0.0
2020-Jan-08 05:00N 59°53' E 030°14'  
Track history (hours):
 
Tides and Currents Weather Stations Pressure Air Temp Water Temp Dewpoint Dewpoint Depression Visibility Wind Speed Wind Dir Waves Ship Positions

Oceanographic research ship Akademik Fedorov (Russia)

Detailed information on ship capabilities available from ARCUS's ALIAS (Arctic Logistics Information and Support) project.

Last reported at 2020-Jan-18 03:55 UTC. Time now 2020-Jan-19 02:57 UTC.
Position N 57°12' E 008°08'.

Length 141 m; beam 17 m.

Type: Other ship. MMSI: 273412710.

Date/timePositionNaut miles runAvg speedWind from/ knotsBaromVisibWave heightAir tempDewpointWater temp
2020-Jan-18 03:55N 57°12' E 008°08'18 9.6
2020-Jan-18 02:00N 57°26' E 008°29'9 9.2
2020-Jan-18 00:58N 57°34' E 008°40'9 9.8
2020-Jan-18 00:01N 57°39' E 008°55'39 9.8
2020-Jan-17 20:00N 57°55' E 010°02'14 9.6
2020-Jan-17 18:30N 57°58' E 010°29'1312.8
2020-Jan-17 17:30N 57°53' E 010°51'1616.1
2020-Jan-17 16:30N 57°40' E 011°09'2416.2
2020-Jan-17 15:00N 57°19' E 011°31'12614.9
2020-Jan-17 06:33N 55°14' E 011°06'2415.2
2020-Jan-17 05:00N 54°52' E 010°53'816.1
2020-Jan-17 04:30N 54°44' E 010°53'815.1
2020-Jan-17 04:00N 54°39' E 011°03'2315.5
2020-Jan-17 02:30N 54°29' E 011°39'2411.8
2020-Jan-17 00:30N 54°38' E 012°17'9914.1
2020-Jan-16 17:26N 55°30' E 014°44'613.9
2020-Jan-16 17:00N 55°32' E 014°54'4013.4
2020-Jan-16 14:00N 55°45' E 016°02'1312.9
2020-Jan-16 13:00N 55°48' E 016°24'612.9
2020-Jan-16 12:30N 55°50' E 016°35'612.7
2020-Jan-16 12:00N 55°51' E 016°46'29013.2
2020-Jan-15 14:01N 59°32' E 022°38'1711.0
2020-Jan-15 12:30N 59°37' E 023°09'1211.2
2020-Jan-15 11:28N 59°40' E 023°31'2412.2
2020-Jan-15 09:27N 59°47' E 024°18'1313.3
2020-Jan-15 08:31N 59°50' E 024°42'5114.7
2020-Jan-15 05:00N 60°00' E 026°23'2214.7
2020-Jan-15 03:30N 60°01' E 027°07'1514.6
2020-Jan-15 02:30N 60°08' E 027°32'1313.3
2020-Jan-15 01:30N 60°11' E 027°58'2214.7
2020-Jan-15 00:00N 60°03' E 028°40'3313.1
2020-Jan-14 21:30N 59°59' E 029°45'510.9
2020-Jan-14 21:00N 59°56' E 029°55'9 6.3
2020-Jan-14 19:30N 59°53' E 030°12'0 0.0
2020-Jan-14 18:24N 59°53' E 030°12'0 0.0
2020-Jan-14 18:00N 59°53' E 030°12'0 0.0
2020-Jan-14 17:30N 59°53' E 030°12'0 0.0
2020-Jan-14 16:54N 59°53' E 030°12'0 0.0
2020-Jan-14 15:00N 59°53' E 030°12'0 0.0
2020-Jan-14 14:30N 59°53' E 030°12'0 0.0
2020-Jan-14 13:30N 59°53' E 030°12'0 0.0
2020-Jan-14 11:54N 59°53' E 030°12'0 0.0
2020-Jan-14 11:18N 59°53' E 030°12'0 0.0
2020-Jan-14 10:36N 59°53' E 030°12'0 0.0
2020-Jan-14 10:00N 59°53' E 030°12'0 0.0
2020-Jan-14 07:30N 59°53' E 030°12'0 0.0
2020-Jan-14 06:00N 59°53' E 030°12'0 0.0
2020-Jan-14 05:30N 59°53' E 030°12'0 0.0
2020-Jan-14 01:00N 59°53' E 030°12'0 0.0
2020-Jan-13 20:30N 59°53' E 030°12'0 0.0
2020-Jan-13 18:00N 59°53' E 030°12'0 0.0
2020-Jan-13 16:57N 59°53' E 030°12'0 0.0
2020-Jan-13 12:00N 59°53' E 030°12'0 0.0
2020-Jan-13 11:00N 59°53' E 030°12'0 0.0
2020-Jan-13 07:45N 59°53' E 030°12'0 0.0
2020-Jan-13 06:30N 59°53' E 030°12'0 0.0
2020-Jan-13 05:00N 59°53' E 030°12'0 0.0
2020-Jan-13 04:30N 59°53' E 030°12'0 0.0
2020-Jan-13 04:00N 59°53' E 030°12'0 0.0
2020-Jan-13 03:30N 59°53' E 030°12'0 0.0
2020-Jan-13 01:48N 59°53' E 030°12'0 0.0
2020-Jan-13 01:24N 59°53' E 030°12'0 0.0
2020-Jan-13 00:30N 59°53' E 030°12'0 0.0
2020-Jan-12 20:24N 59°53' E 030°12'0 0.0
2020-Jan-12 18:24N 59°53' E 030°12'0 0.0
2020-Jan-12 17:24N 59°53' E 030°12'0 0.0
2020-Jan-12 16:24N 59°53' E 030°12'0 0.0
2020-Jan-12 16:00N 59°53' E 030°12'0 0.0
2020-Jan-12 15:27N 59°53' E 030°12'0 0.0
2020-Jan-12 12:30N 59°53' E 030°12'0 0.0
2020-Jan-12 11:30N 59°53' E 030°12'0 0.0
2020-Jan-12 10:24N 59°53' E 030°12'0 0.0
2020-Jan-12 08:51N 59°53' E 030°12'0 0.0
2020-Jan-12 08:30N 59°53' E 030°12'0 0.0
2020-Jan-12 07:00N 59°53' E 030°12'0 0.0
2020-Jan-12 03:00N 59°53' E 030°12'0 0.0
2020-Jan-12 00:57N 59°53' E 030°12'0 0.0
2020-Jan-12 00:00N 59°53' E 030°12'0 0.0
2020-Jan-11 23:00N 59°53' E 030°12'0 0.0
2020-Jan-11 22:27N 59°53' E 030°12'0 0.0
2020-Jan-11 21:30N 59°53' E 030°12'0 0.0
2020-Jan-11 20:57N 59°53' E 030°12'0 0.0
2020-Jan-11 16:42N 59°53' E 030°12'0 0.0
2020-Jan-11 16:00N 59°53' E 030°12'0 0.0
2020-Jan-11 11:00N 59°53' E 030°12'0 0.0
2020-Jan-11 06:30N 59°53' E 030°12'0 0.0
2020-Jan-11 03:24N 59°53' E 030°12'0 0.0
2020-Jan-11 03:00N 59°53' E 030°12'0 0.0
2020-Jan-11 02:30N 59°53' E 030°12'0 0.0
2020-Jan-11 01:30N 59°53' E 030°12'0 0.0
2020-Jan-10 23:30N 59°53' E 030°12'0 0.0
2020-Jan-10 17:30N 59°53' E 030°12'0 0.0
2020-Jan-10 17:00N 59°53' E 030°12'0 0.0
2020-Jan-10 15:30N 59°53' E 030°12'0 0.0
2020-Jan-10 12:30N 59°53' E 030°12'0 0.0
2020-Jan-10 10:24N 59°53' E 030°12'0 0.0
2020-Jan-10 08:30N 59°53' E 030°12'0 0.0
2020-Jan-10 08:00N 59°53' E 030°12'0 0.0
2020-Jan-10 07:30N 59°53' E 030°12'0 0.0
2020-Jan-10 07:00N 59°53' E 030°12'0 0.0
2020-Jan-10 06:27N 59°53' E 030°12'0 0.0
2020-Jan-10 01:30N 59°53' E 030°12'0 0.0
2020-Jan-10 00:51N 59°53' E 030°12'0 0.0
2020-Jan-09 22:30N 59°53' E 030°12'0 0.0
2020-Jan-09 18:57N 59°53' E 030°12'0 0.0
2020-Jan-09 17:30N 59°53' E 030°12'0 0.0
2020-Jan-09 14:15N 59°53' E 030°12'0 0.0
2020-Jan-09 09:30N 59°53' E 030°12'0 0.0
2020-Jan-09 08:57N 59°53' E 030°12'0 0.0
2020-Jan-09 08:30N 59°53' E 030°12'1 0.2
2020-Jan-09 03:30N 59°53' E 030°14'0 0.0
2020-Jan-09 02:30N 59°53' E 030°14'0 0.0
2020-Jan-08 21:00N 59°53' E 030°14'0 0.0
2020-Jan-08 20:30N 59°53' E 030°14'0 0.0
2020-Jan-08 19:30N 59°53' E 030°14'0 0.0
2020-Jan-08 19:00N 59°53' E 030°14'0 0.0
2020-Jan-08 18:00N 59°53' E 030°14'0 0.0
2020-Jan-08 17:27N 59°53' E 030°14'0 0.0
2020-Jan-08 15:30N 59°53' E 030°14'0 0.0
2020-Jan-08 15:00N 59°53' E 030°14'0 0.0
2020-Jan-08 14:00N 59°53' E 030°14'0 0.0
2020-Jan-08 13:00N 59°53' E 030°14'0 0.0
2020-Jan-08 11:30N 59°53' E 030°14'0 0.0
2020-Jan-08 11:00N 59°53' E 030°14'0 0.0
2020-Jan-08 09:30N 59°53' E 030°14'0 0.0
2020-Jan-08 09:00N 59°53' E 030°14'0 0.0
2020-Jan-08 08:30N 59°53' E 030°14'0 0.0
2020-Jan-08 08:00N 59°53' E 030°14'0 0.0
2020-Jan-08 07:30N 59°53' E 030°14'0 0.0
2020-Jan-08 06:30N 59°53' E 030°14'0 0.0
2020-Jan-08 05:30N 59°53' E 030°14'0 0.0
2020-Jan-08 05:00N 59°53' E 030°14'  

Dump ship's entire track history